createdAt,value
2018-02-17T00:02:00.062Z,94401.34
2018-02-17T00:04:26.755Z,94402.11
2018-02-17T00:06:53.681Z,94406.02
2018-02-17T00:09:20.299Z,94398.89
2018-02-17T00:11:46.915Z,94392.44
2018-02-17T00:14:13.655Z,94392.39
2018-02-17T00:16:40.253Z,94390.61
2018-02-17T00:19:06.848Z,94379.78
2018-02-17T00:21:33.451Z,94377.98
2018-02-17T00:24:00.040Z,94374.84
2018-02-17T00:26:26.779Z,94359.69
2018-02-17T00:28:53.371Z,94368.34
2018-02-17T00:31:20.765Z,94364.75
2018-02-17T00:33:47.397Z,94357.93
2018-02-17T00:36:14.140Z,94362.73
2018-02-17T00:38:40.734Z,94356.48
2018-02-17T00:41:07.327Z,94345.23
2018-02-17T00:43:33.986Z,94354.98
2018-02-17T00:46:00.672Z,94346.70
2018-02-17T00:48:27.328Z,94340.40
2018-02-17T00:50:53.994Z,94342.25
2018-02-17T00:53:20.627Z,94337.49
2018-02-17T00:55:47.262Z,94341.09
2018-02-17T00:58:13.900Z,94343.14
2018-02-17T01:00:40.491Z,94334.55
2018-02-17T01:03:07.859Z,94326.03
2018-02-17T01:05:35.199Z,94316.42
2018-02-17T01:08:01.857Z,94318.33
2018-02-17T01:10:28.522Z,94309.31
2018-02-17T01:12:55.159Z,94302.66
2018-02-17T01:15:21.750Z,94302.14
2018-02-17T01:17:48.369Z,94300.98
2018-02-17T01:20:14.959Z,94286.48
2018-02-17T01:22:41.624Z,94267.44
2018-02-17T01:25:08.247Z,94256.79
2018-02-17T01:27:34.875Z,94251.42
2018-02-17T01:30:01.450Z,94241.70
2018-02-17T01:32:28.114Z,94232.58
2018-02-17T01:34:54.736Z,94224.71
2018-02-17T01:37:22.136Z,94221.77
2018-02-17T01:39:48.772Z,94209.71
2018-02-17T01:42:16.152Z,94212.37
2018-02-17T01:44:42.764Z,94209.30
2018-02-17T01:47:09.435Z,94200.50
2018-02-17T01:49:36.044Z,94205.83
2018-02-17T01:52:02.716Z,94211.89
2018-02-17T01:54:29.354Z,94230.00
2018-02-17T01:56:56.055Z,94232.19
2018-02-17T01:59:23.379Z,94218.94
2018-02-17T02:01:49.966Z,94212.59
2018-02-17T02:04:16.570Z,94198.30
2018-02-17T02:06:43.189Z,94187.94
2018-02-17T02:09:09.795Z,94184.75
2018-02-17T02:11:36.443Z,94171.17
2018-02-17T02:14:03.078Z,94156.05
2018-02-17T02:16:29.731Z,94155.71
2018-02-17T02:18:56.342Z,94159.31
2018-02-17T02:21:22.945Z,94166.26
2018-02-17T02:23:49.539Z,94173.08
2018-02-17T02:26:16.136Z,94177.14
2018-02-17T02:28:42.780Z,94177.84
2018-02-17T02:31:09.371Z,94188.61
2018-02-17T02:33:36.301Z,94180.30
2018-02-17T02:36:02.907Z,94171.84
2018-02-17T02:38:29.535Z,94167.77
2018-02-17T02:40:56.208Z,94168.19
2018-02-17T02:43:22.831Z,94158.84
2018-02-17T02:45:49.461Z,94163.54
2018-02-17T02:48:16.067Z,94145.10
2018-02-17T02:50:42.683Z,94145.28
2018-02-17T02:53:09.330Z,94152.94
2018-02-17T02:55:36.695Z,94161.50
2018-02-17T02:58:04.080Z,94157.55
2018-02-17T03:00:30.699Z,94152.50
2018-02-17T03:02:57.305Z,94140.79
2018-02-17T03:05:23.891Z,94146.94
2018-02-17T03:07:50.494Z,94155.30
2018-02-17T03:10:17.110Z,94151.41
2018-02-17T03:12:43.720Z,94151.15
2018-02-17T03:15:10.347Z,94151.08
2018-02-17T03:17:36.992Z,94127.58
2018-02-17T03:20:03.591Z,94118.17
2018-02-17T03:22:30.932Z,94091.62
2018-02-17T03:24:57.557Z,94089.58
2018-02-17T03:27:24.199Z,94078.27
2018-02-17T03:29:50.790Z,94074.06
2018-02-17T03:32:17.385Z,94070.70
2018-02-17T03:34:44.730Z,94055.69
2018-02-17T03:37:12.120Z,94052.13
2018-02-17T03:39:39.540Z,94050.64
2018-02-17T03:42:06.149Z,94054.30
2018-02-17T03:44:32.735Z,94056.89
2018-02-17T03:47:00.060Z,94060.34
2018-02-17T03:49:26.669Z,94063.13
2018-02-17T03:51:53.234Z,94048.56
2018-02-17T03:54:19.928Z,94043.73
2018-02-17T03:56:46.506Z,94029.40
2018-02-17T03:59:13.066Z,94021.48
2018-02-17T04:01:40.422Z,94014.25
2018-02-17T04:04:07.739Z,94003.92
2018-02-17T04:06:34.366Z,94004.72
2018-02-17T04:09:00.918Z,93998.42
2018-02-17T04:11:27.557Z,93981.55
2018-02-17T04:13:54.170Z,93967.47
2018-02-17T04:16:20.758Z,93964.77
2018-02-17T04:18:48.084Z,93971.31
2018-02-17T04:21:14.719Z,93973.94
2018-02-17T04:23:42.088Z,93988.27
2018-02-17T04:26:08.691Z,93992.98
2018-02-17T04:28:35.306Z,93987.10
2018-02-17T04:31:01.872Z,93976.69
2018-02-17T04:33:28.560Z,93981.59
2018-02-17T04:35:55.193Z,93990.00
2018-02-17T04:38:21.863Z,93982.98
2018-02-17T04:40:52.353Z,93976.28
2018-02-17T04:43:24.614Z,93967.85
2018-02-17T04:45:59.060Z,93965.65
2018-02-17T05:01:57.573Z,93926.62
2018-02-17T05:17:51.106Z,93929.94
2018-02-17T05:33:46.148Z,93930.37
2018-02-17T05:36:13.613Z,93927.74
2018-02-17T05:38:42.077Z,93926.14
2018-02-17T05:41:22.646Z,93917.30
2018-02-17T05:43:49.310Z,93908.29
2018-02-17T05:46:15.917Z,93883.52
2018-02-17T05:48:46.466Z,93884.78
2018-02-17T05:51:13.090Z,93870.06
2018-02-17T05:53:40.431Z,93865.41
2018-02-17T05:56:07.050Z,93851.16
2018-02-17T05:58:33.665Z,93848.00
2018-02-17T06:01:00.351Z,93836.76
2018-02-17T06:03:27.026Z,93829.13
2018-02-17T06:05:53.711Z,93833.29
2018-02-17T06:08:20.379Z,93849.71
2018-02-17T06:10:46.963Z,93858.77
2018-02-17T06:13:13.559Z,93848.44
2018-02-17T06:15:40.179Z,93843.19
2018-02-17T06:18:06.871Z,93845.78
2018-02-17T06:20:33.473Z,93842.92
2018-02-17T06:23:00.074Z,93837.13
2018-02-17T06:25:27.443Z,93836.65
2018-02-17T06:27:54.763Z,93826.43
2018-02-17T06:30:21.375Z,93815.06
2018-02-17T06:32:47.964Z,93808.33
2018-02-17T06:35:15.306Z,93813.09
2018-02-17T06:37:41.891Z,93820.44
2018-02-17T06:40:08.506Z,93839.05
2018-02-17T06:42:35.171Z,93844.92
2018-02-17T06:45:01.885Z,93852.98
2018-02-17T06:47:28.615Z,93861.40
2018-02-17T06:49:55.982Z,93872.41
2018-02-17T06:52:23.325Z,93874.17
2018-02-17T06:54:49.970Z,93893.11
2018-02-17T06:57:16.578Z,93892.83
2018-02-17T06:59:43.235Z,93894.94
2018-02-17T07:02:10.759Z,93893.63
2018-02-17T07:04:37.315Z,93892.58
2018-02-17T07:07:04.668Z,93888.59
2018-02-17T07:09:32.057Z,93885.92
2018-02-17T07:11:58.706Z,93864.28
2018-02-17T07:14:25.276Z,93856.60
2018-02-17T07:16:51.915Z,93843.44
2018-02-17T07:19:18.519Z,93829.77
2018-02-17T07:21:45.138Z,93809.34
2018-02-17T07:24:11.775Z,93795.83
2018-02-17T07:26:38.391Z,93786.63
2018-02-17T07:29:05.782Z,93776.00
2018-02-17T07:31:32.885Z,93776.50
2018-02-17T07:33:59.498Z,93770.34
2018-02-17T07:36:26.136Z,93774.97
2018-02-17T07:38:52.762Z,93761.86
2018-02-17T07:41:19.385Z,93781.98
2018-02-17T07:43:46.076Z,93789.06
2018-02-17T07:46:13.491Z,93792.92
2018-02-17T07:48:40.107Z,93795.44
2018-02-17T07:51:06.729Z,93811.65
2018-02-17T07:53:33.310Z,93810.14
2018-02-17T07:56:00.019Z,93803.42
2018-02-17T07:58:26.669Z,93790.97
2018-02-17T08:00:53.256Z,93795.36
2018-02-17T08:03:20.615Z,93786.83
2018-02-17T08:05:47.212Z,93779.20
2018-02-17T08:08:13.909Z,93783.14
2018-02-17T08:10:40.569Z,93782.17
2018-02-17T08:13:07.179Z,93781.69
2018-02-17T08:15:33.820Z,93776.37
2018-02-17T08:18:00.462Z,93778.38
2018-02-17T08:20:27.125Z,93771.61
2018-02-17T08:22:53.714Z,93762.85
2018-02-17T08:25:21.036Z,93749.91
2018-02-17T08:27:47.684Z,93746.08
2018-02-17T08:30:15.054Z,93746.94
2018-02-17T08:32:42.438Z,93736.15
2018-02-17T08:35:09.034Z,93738.38
2018-02-17T08:37:35.730Z,93738.25
2018-02-17T08:40:02.372Z,93734.35
2018-02-17T08:42:29.048Z,93731.38
2018-02-17T08:44:55.684Z,93720.77
2018-02-17T08:47:22.306Z,93724.97
2018-02-17T08:49:48.959Z,93716.23
2018-02-17T08:52:15.569Z,93712.28
2018-02-17T08:54:42.194Z,93708.45
2018-02-17T08:57:08.805Z,93705.83
2018-02-17T08:59:35.470Z,93707.33
2018-02-17T09:02:02.135Z,93706.89
2018-02-17T09:04:28.760Z,93692.05
2018-02-17T09:06:56.077Z,93693.08
2018-02-17T09:09:22.699Z,93687.78
2018-02-17T09:11:50.088Z,93679.39
2018-02-17T09:14:16.676Z,93680.95
2018-02-17T09:16:44.054Z,93679.59
2018-02-17T09:19:10.769Z,93678.37
2018-02-17T09:21:37.366Z,93671.34
2018-02-17T09:24:03.992Z,93676.20
2018-02-17T09:26:30.587Z,93671.97
2018-02-17T09:28:57.993Z,93664.17
2018-02-17T09:31:24.565Z,93659.46
2018-02-17T09:33:51.166Z,93658.13
2018-02-17T09:36:17.843Z,93665.07
2018-02-17T09:38:45.204Z,93661.53
2018-02-17T09:41:11.814Z,93654.31
2018-02-17T09:43:38.474Z,93654.38
2018-02-17T09:46:05.074Z,93651.23
2018-02-17T09:48:31.664Z,93654.40
2018-02-17T09:50:59.046Z,93652.84
2018-02-17T09:53:25.810Z,93650.95
2018-02-17T09:55:52.387Z,93652.11
2018-02-17T09:58:19.742Z,93651.20
2018-02-17T10:00:46.378Z,93655.19
2018-02-17T10:03:12.980Z,93650.35
2018-02-17T10:05:39.566Z,93655.83
2018-02-17T10:08:06.923Z,93656.66
2018-02-17T10:10:33.516Z,93660.55
2018-02-17T10:13:00.123Z,93660.78
2018-02-17T10:15:26.706Z,93656.10
2018-02-17T10:17:53.310Z,93663.32
2018-02-17T10:20:19.919Z,93660.28
2018-02-17T10:22:46.569Z,93658.55
2018-02-17T10:25:13.207Z,93655.42
2018-02-17T10:27:39.781Z,93651.73
2018-02-17T10:30:06.407Z,93650.01
2018-02-17T10:32:33.148Z,93651.43
2018-02-17T10:34:59.773Z,93660.91
2018-02-17T10:37:26.407Z,93660.09
2018-02-17T10:39:53.004Z,93660.59
2018-02-17T10:42:20.375Z,93664.59
2018-02-17T10:44:46.966Z,93666.19
2018-02-17T10:47:14.290Z,93674.50
2018-02-17T10:49:40.962Z,93680.91
2018-02-17T10:52:07.608Z,93684.13
2018-02-17T10:54:34.316Z,93685.44
2018-02-17T10:57:00.883Z,93683.93
2018-02-17T10:59:27.559Z,93681.94
2018-02-17T11:01:54.186Z,93673.11
2018-02-17T11:04:20.798Z,93681.65
2018-02-17T11:06:47.415Z,93690.86
2018-02-17T11:09:13.978Z,93689.97
2018-02-17T11:11:41.347Z,93687.84
2018-02-17T11:14:07.915Z,93696.20
2018-02-17T11:16:36.447Z,93685.61
2018-02-17T11:19:03.043Z,93676.25
2018-02-17T11:21:29.695Z,93670.50
2018-02-17T11:23:56.259Z,93680.30
2018-02-17T11:26:23.606Z,93676.08
2018-02-17T11:28:50.174Z,93671.48
2018-02-17T11:31:16.772Z,93672.91
2018-02-17T11:33:43.407Z,93668.89
2018-02-17T11:36:09.967Z,93657.66
2018-02-17T11:38:37.311Z,93665.19
2018-02-17T11:41:04.649Z,93669.00
2018-02-17T11:43:32.004Z,93674.55
2018-02-17T11:45:58.579Z,93660.95
2018-02-17T11:48:25.225Z,93669.56
2018-02-17T11:50:52.574Z,93665.09
2018-02-17T11:53:19.215Z,93657.45
2018-02-17T11:55:45.900Z,93656.27
2018-02-17T11:58:12.623Z,93656.04
2018-02-17T12:00:39.306Z,93661.04
2018-02-17T12:03:06.655Z,93657.27
2018-02-17T12:05:33.982Z,93649.88
2018-02-17T12:08:00.574Z,93653.80
2018-02-17T12:10:27.165Z,93646.34
2018-02-17T12:12:53.766Z,93649.41
2018-02-17T12:15:20.384Z,93645.33
2018-02-17T12:17:46.991Z,93656.66
2018-02-17T12:20:13.572Z,93662.00
2018-02-17T12:22:40.177Z,93655.19
2018-02-17T12:25:06.818Z,93664.75
2018-02-17T12:27:34.143Z,93666.97
2018-02-17T12:30:00.754Z,93663.66
2018-02-17T12:35:35.256Z,93658.87
2018-02-17T12:38:02.599Z,93658.94
2018-02-17T12:40:29.894Z,93654.30
2018-02-17T12:42:56.456Z,93660.77
2018-02-17T12:45:23.041Z,93658.08
2018-02-17T12:47:49.638Z,93664.18
2018-02-17T12:50:16.222Z,93662.00
2018-02-17T12:52:43.283Z,93661.63
2018-02-17T12:55:09.985Z,93657.58
2018-02-17T12:57:36.565Z,93657.67
2018-02-17T13:00:03.228Z,93655.91
2018-02-17T13:02:30.560Z,93650.63
2018-02-17T13:04:57.141Z,93651.66
2018-02-17T13:07:23.762Z,93649.70
2018-02-17T13:09:50.359Z,93645.91
2018-02-17T13:12:16.975Z,93650.84
2018-02-17T13:14:44.289Z,93644.03
2018-02-17T13:17:10.856Z,93655.20
2018-02-17T13:19:38.227Z,93653.05
2018-02-17T13:22:04.802Z,93649.81
2018-02-17T13:24:31.403Z,93660.46
2018-02-17T13:26:57.946Z,93659.95
2018-02-17T13:29:24.759Z,93658.91
2018-02-17T13:31:52.058Z,93660.00
2018-02-17T13:34:19.414Z,93660.44
2018-02-17T13:36:46.082Z,93668.89
2018-02-17T13:39:12.627Z,93674.24
2018-02-17T13:41:39.936Z,93668.23
2018-02-17T13:44:06.534Z,93665.33
2018-02-17T13:46:33.866Z,93675.94
2018-02-17T13:49:00.470Z,93674.52
2018-02-17T13:51:27.028Z,93672.02
2018-02-17T13:53:53.603Z,93682.31
2018-02-17T13:56:20.226Z,93688.09
2018-02-17T13:58:47.555Z,93684.54
2018-02-17T14:01:14.123Z,93687.84
2018-02-17T14:03:40.705Z,93692.98
2018-02-17T14:06:07.317Z,93694.75
2018-02-17T14:08:34.043Z,93694.56
2018-02-17T14:11:00.636Z,93696.39
2018-02-17T14:13:27.209Z,93692.63
2018-02-17T14:15:53.786Z,93697.95
2018-02-17T14:18:20.360Z,93695.50
2018-02-17T14:20:47.723Z,93699.19
2018-02-17T14:23:15.007Z,93704.40
2018-02-17T14:25:41.587Z,93700.14
2018-02-17T14:28:08.150Z,93719.92
2018-02-17T14:30:34.747Z,93709.14
2018-02-17T14:33:01.331Z,93717.02
2018-02-17T14:35:28.685Z,93714.89
2018-02-17T14:37:56.003Z,93719.30
2018-02-17T14:40:22.607Z,93719.16
2018-02-17T14:42:49.232Z,93730.45
2018-02-17T14:45:16.639Z,93731.27
2018-02-17T14:47:43.230Z,93731.41
2018-02-17T14:50:09.850Z,93736.07
2018-02-17T14:52:36.480Z,93739.81
2018-02-17T14:55:03.863Z,93740.08
2018-02-17T14:57:30.467Z,93745.02
2018-02-17T14:59:57.054Z,93748.83
2018-02-17T15:02:23.671Z,93745.11
2018-02-17T15:04:50.226Z,93751.56
2018-02-17T15:07:16.827Z,93755.45
2018-02-17T15:09:43.427Z,93757.02
2018-02-17T15:12:10.883Z,93751.16
2018-02-17T15:14:38.278Z,93758.39
2018-02-17T15:17:05.103Z,93759.70
2018-02-17T15:19:32.458Z,93758.31
2018-02-17T15:21:59.710Z,93753.44
2018-02-17T15:24:27.017Z,93771.59
2018-02-17T15:26:53.620Z,93773.16
2018-02-17T15:29:20.207Z,93765.00
2018-02-17T15:31:46.763Z,93769.50
2018-02-17T15:34:14.289Z,93774.72
2018-02-17T15:36:40.961Z,93779.95
2018-02-17T15:39:07.914Z,93787.00
2018-02-17T15:41:34.614Z,93789.05
2018-02-17T15:44:01.212Z,93798.84
2018-02-17T15:46:27.821Z,93799.25
2018-02-17T15:48:55.135Z,93806.94
2018-02-17T15:51:21.718Z,93806.17
2018-02-17T15:53:49.042Z,93818.27
2018-02-17T15:56:15.616Z,93816.57
2018-02-17T15:58:42.207Z,93825.61
2018-02-17T16:01:09.588Z,93827.66
2018-02-17T16:03:37.194Z,93827.53
2018-02-17T16:06:04.545Z,93829.41
2018-02-17T16:08:31.114Z,93831.80
2018-02-17T16:10:57.689Z,93836.63
2018-02-17T16:13:24.258Z,93839.18
2018-02-17T16:15:50.882Z,93845.45
2018-02-17T16:18:17.614Z,93847.90
2018-02-17T16:20:44.235Z,93862.98
2018-02-17T16:23:11.586Z,93865.16
2018-02-17T16:25:38.929Z,93869.50
2018-02-17T16:28:05.490Z,93866.22
2018-02-17T16:30:32.068Z,93872.14
2018-02-17T16:32:58.654Z,93879.95
2018-02-17T16:35:25.268Z,93879.19
2018-02-17T16:37:51.986Z,93885.99
2018-02-17T16:40:18.591Z,93888.64
2018-02-17T16:42:45.170Z,93890.56
2018-02-17T16:45:12.086Z,93900.31
2018-02-17T16:47:38.664Z,93906.87
2018-02-17T16:50:06.087Z,93915.62
2018-02-17T16:52:33.039Z,93914.62
2018-02-17T16:55:00.386Z,93916.08
2018-02-17T16:57:26.988Z,93924.32
2018-02-17T16:59:53.590Z,93927.23
2018-02-17T17:02:20.202Z,93929.00
2018-02-17T17:04:46.769Z,93934.80
2018-02-17T17:07:14.208Z,93943.27
2018-02-17T17:09:40.821Z,93947.20
2018-02-17T17:12:07.454Z,93951.63
2018-02-17T17:14:34.043Z,93961.56
2018-02-17T17:17:00.667Z,93961.45
2018-02-17T17:19:27.246Z,93959.38
2018-02-17T17:21:53.847Z,93970.09
2018-02-17T17:24:21.165Z,93978.66
2018-02-17T17:26:47.739Z,93982.73
2018-02-17T17:29:15.093Z,93978.87
2018-02-17T17:31:42.407Z,93985.37
2018-02-17T17:34:09.040Z,93988.65
2018-02-17T17:36:35.729Z,93988.04
2018-02-17T17:39:02.380Z,93999.96
2018-02-17T17:41:29.044Z,94003.53
2018-02-17T17:43:55.725Z,94000.73
2018-02-17T17:46:23.287Z,94000.11
2018-02-17T17:48:49.946Z,94004.06
2018-02-17T17:51:16.549Z,94009.20
2018-02-17T17:53:43.139Z,94019.77
2018-02-17T17:56:09.708Z,94022.06
2018-02-17T17:58:36.652Z,94022.30
2018-02-17T18:01:03.249Z,94024.38
2018-02-17T18:03:29.840Z,94028.66
2018-02-17T18:05:56.456Z,94034.41
2018-02-17T18:08:23.059Z,94027.58
2018-02-17T18:10:49.639Z,94035.47
2018-02-17T18:13:16.254Z,94047.20
2018-02-17T18:15:42.868Z,94051.74
2018-02-17T18:18:09.824Z,94064.27
2018-02-17T18:20:36.408Z,94059.30
2018-02-17T18:23:02.976Z,94060.11
2018-02-17T18:25:29.638Z,94071.02
2018-02-17T18:27:56.373Z,94073.17
2018-02-17T18:30:22.990Z,94075.69
2018-02-17T18:32:49.735Z,94070.80
2018-02-17T18:35:16.306Z,94067.63
2018-02-17T18:37:42.886Z,94072.91
2018-02-17T18:40:10.186Z,94081.42
2018-02-17T18:42:36.771Z,94081.50
2018-02-17T18:45:03.356Z,94087.75
2018-02-17T18:47:29.997Z,94078.36
2018-02-17T18:49:56.590Z,94083.52
2018-02-17T18:52:23.919Z,94080.06
2018-02-17T18:54:50.514Z,94079.45
2018-02-17T18:57:17.071Z,94084.08
2018-02-17T18:59:43.695Z,94090.36
2018-02-17T19:02:10.274Z,94089.86
2018-02-17T19:04:36.854Z,94094.75
2018-02-17T19:07:03.543Z,94100.65
2018-02-17T19:09:30.171Z,94096.28
2018-02-17T19:11:56.843Z,94094.55
2018-02-17T19:14:23.419Z,94094.31
2018-02-17T19:16:49.992Z,94098.33
2018-02-17T19:19:16.570Z,94100.03
2018-02-17T19:21:43.158Z,94101.59
2018-02-17T19:24:09.723Z,94108.24
2018-02-17T19:26:36.324Z,94109.27
2018-02-17T19:29:02.918Z,94118.94
2018-02-17T19:31:29.593Z,94116.27
2018-02-17T19:33:56.487Z,94118.85
2018-02-17T19:36:23.098Z,94114.12
2018-02-17T19:38:49.779Z,94119.70
2018-02-17T19:41:16.390Z,94115.41
2018-02-17T19:43:42.998Z,94122.70
2018-02-17T19:46:09.590Z,94124.21
2018-02-17T19:48:36.200Z,94127.52
2018-02-17T19:51:02.794Z,94136.45
2018-02-17T19:53:29.456Z,94132.06
2018-02-17T19:55:56.116Z,94137.98
2018-02-17T19:58:23.461Z,94138.86
2018-02-17T20:00:50.103Z,94151.23
2018-02-17T20:03:17.441Z,94148.01
2018-02-17T20:05:44.007Z,94154.06
2018-02-17T20:08:10.653Z,94151.73
2018-02-17T20:10:37.273Z,94159.23
2018-02-17T20:13:04.585Z,94156.37
2018-02-17T20:15:31.160Z,94159.20
2018-02-17T20:17:58.532Z,94162.97
2018-02-17T20:20:25.131Z,94160.72
2018-02-17T20:22:51.734Z,94158.55
2018-02-17T20:25:18.351Z,94164.72
2018-02-17T20:27:45.023Z,94157.43
2018-02-17T20:30:11.731Z,94163.15
2018-02-17T20:32:38.322Z,94175.78
2018-02-17T20:35:04.868Z,94182.36
2018-02-17T20:37:32.207Z,94180.94
2018-02-17T20:39:58.853Z,94186.49
2018-02-17T20:42:26.226Z,94185.53
2018-02-17T20:44:53.564Z,94189.64
2018-02-17T20:47:20.164Z,94192.54
2018-02-17T20:49:46.787Z,94192.85
2018-02-17T20:52:13.422Z,94191.34
2018-02-17T20:54:40.033Z,94194.39
2018-02-17T20:57:06.644Z,94199.23
2018-02-17T20:59:33.227Z,94204.92
2018-02-17T21:01:59.897Z,94209.78
2018-02-17T21:04:26.499Z,94207.48
2018-02-17T21:06:53.083Z,94208.61
2018-02-17T21:09:19.700Z,94220.25
2018-02-17T21:11:46.414Z,94214.13
2018-02-17T21:14:13.034Z,94226.50
2018-02-17T21:16:39.626Z,94222.66
2018-02-17T21:19:06.234Z,94224.11
2018-02-17T21:21:32.861Z,94236.72
2018-02-17T21:23:59.481Z,94239.35
2018-02-17T21:26:26.178Z,94241.11
2018-02-17T21:28:52.791Z,94241.41
2018-02-17T21:31:19.466Z,94247.80
2018-02-17T21:33:46.046Z,94258.32
2018-02-17T21:36:12.701Z,94257.50
2018-02-17T21:38:39.306Z,94262.19
2018-02-17T21:41:05.891Z,94267.64
2018-02-17T21:43:32.524Z,94272.33
2018-02-17T21:45:59.103Z,94278.41
2018-02-17T21:48:25.795Z,94281.92
2018-02-17T21:50:52.423Z,94285.44
2018-02-17T21:53:19.012Z,94287.48
2018-02-17T21:55:46.366Z,94289.70
2018-02-17T21:58:13.683Z,94288.20
2018-02-17T22:00:40.320Z,94304.33
2018-02-17T22:03:06.938Z,94311.65
2018-02-17T22:05:34.319Z,94313.55
2018-02-17T22:08:00.936Z,94313.91
2018-02-17T22:10:27.499Z,94320.35
2018-02-17T22:12:54.124Z,94311.85
2018-02-17T22:15:20.857Z,94311.89
2018-02-17T22:17:47.468Z,94311.38
2018-02-17T22:20:14.032Z,94309.39
2018-02-17T22:22:40.613Z,94318.71
2018-02-17T22:25:07.956Z,94320.92
2018-02-17T22:27:34.547Z,94323.39
2018-02-17T22:30:01.194Z,94325.14
2018-02-17T22:32:27.783Z,94322.16
2018-02-17T22:34:55.094Z,94334.38
2018-02-17T22:37:21.655Z,94334.03
2018-02-17T22:39:48.206Z,94332.36
2018-02-17T22:42:14.808Z,94341.75
2018-02-17T22:44:41.426Z,94347.36
2018-02-17T22:47:07.999Z,94353.94
2018-02-17T22:49:34.593Z,94354.77
2018-02-17T22:52:01.242Z,94360.02
2018-02-17T22:54:27.911Z,94350.98
2018-02-17T22:56:54.477Z,94359.57
2018-02-17T22:59:21.016Z,94363.59
2018-02-17T23:01:47.621Z,94364.30
2018-02-17T23:04:14.978Z,94361.53
2018-02-17T23:06:42.375Z,94367.59
2018-02-17T23:09:08.998Z,94368.52
2018-02-17T23:11:35.644Z,94365.17
2018-02-17T23:14:02.251Z,94363.47
2018-02-17T23:16:29.547Z,94363.13
2018-02-17T23:18:56.102Z,94363.02
2018-02-17T23:21:22.712Z,94370.25
2018-02-17T23:23:49.282Z,94371.89
2018-02-17T23:26:15.885Z,94366.02
2018-02-17T23:28:42.471Z,94367.34
2018-02-17T23:31:09.023Z,94368.69
2018-02-17T23:33:36.334Z,94371.91
2018-02-17T23:36:02.902Z,94376.10
2018-02-17T23:38:30.317Z,94376.98
2018-02-17T23:40:56.861Z,94392.03
2018-02-17T23:43:23.437Z,94389.80
2018-02-17T23:45:50.732Z,94401.13
2018-02-17T23:48:17.346Z,94394.78
2018-02-17T23:50:43.923Z,94400.50
2018-02-17T23:53:10.529Z,94398.19
2018-02-17T23:55:37.146Z,94405.95
2018-02-17T23:58:03.787Z,94403.55
